createdAt,value
2018-01-08T00:01:10.215Z,7.50
2018-01-08T00:03:36.452Z,7.75
2018-01-08T00:06:02.681Z,8.45
2018-01-08T00:08:28.946Z,7.50
2018-01-08T00:10:55.148Z,7.70
2018-01-08T00:13:21.206Z,7.78
2018-01-08T00:15:47.422Z,7.60
2018-01-08T00:18:13.645Z,8.38
2018-01-08T00:20:39.912Z,8.07
2018-01-08T00:23:05.918Z,7.10
2018-01-08T00:25:31.929Z,7.97
2018-01-08T00:27:58.871Z,7.95
2018-01-08T00:30:25.093Z,8.43
2018-01-08T00:32:51.296Z,7.22
2018-01-08T00:35:17.550Z,7.82
2018-01-08T00:37:44.799Z,7.12
2018-01-08T00:40:11.817Z,9.07
2018-01-08T00:42:38.240Z,8.13
2018-01-08T00:45:04.652Z,7.72
2018-01-08T00:47:30.873Z,5.97
2018-01-08T00:49:57.887Z,8.27
2018-01-08T00:52:24.273Z,12.27
2018-01-08T00:54:50.492Z,8.38
2018-01-08T00:57:17.027Z,9.82
2018-01-08T00:59:43.422Z,9.30
2018-01-08T01:02:10.352Z,8.50
2018-01-08T01:04:37.145Z,8.80
2018-01-08T01:07:03.329Z,8.85
2018-01-08T01:09:29.596Z,8.95
2018-01-08T01:11:55.809Z,7.40
2018-01-08T01:14:22.030Z,8.50
2018-01-08T01:16:49.371Z,8.77
2018-01-08T01:19:15.582Z,7.82
2018-01-08T01:21:41.776Z,8.45
2018-01-08T01:24:07.830Z,10.35
2018-01-08T01:26:34.583Z,8.90
2018-01-08T01:29:00.593Z,9.10
2018-01-08T01:31:26.617Z,9.35
2018-01-08T01:33:52.740Z,10.50
2018-01-08T01:36:18.768Z,8.85
2018-01-08T01:38:44.790Z,9.63
2018-01-08T01:41:11.545Z,8.48
2018-01-08T01:43:37.573Z,9.57
2018-01-08T01:46:04.354Z,11.38
2018-01-08T01:48:30.432Z,9.15
2018-01-08T01:50:56.454Z,10.07
2018-01-08T01:53:24.037Z,10.18
2018-01-08T01:55:50.298Z,8.95
2018-01-08T01:58:16.567Z,11.35
2018-01-08T02:00:43.525Z,9.77
2018-01-08T02:03:10.509Z,10.98
2018-01-08T02:05:36.775Z,11.82
2018-01-08T02:08:03.036Z,8.38
2018-01-08T02:10:29.262Z,10.13
2018-01-08T02:12:55.470Z,10.43
2018-01-08T02:15:21.765Z,10.73
2018-01-08T02:17:48.003Z,9.90
2018-01-08T02:20:14.262Z,10.05
2018-01-08T02:22:40.850Z,11.68
2018-01-08T02:25:07.872Z,12.50
2018-01-08T02:27:34.130Z,10.60
2018-01-08T02:30:00.377Z,11.82
2018-01-08T02:32:26.646Z,11.77
2018-01-08T02:34:52.837Z,10.55
2018-01-08T02:37:19.848Z,8.63
2018-01-08T02:39:46.051Z,9.15
2018-01-08T02:42:12.407Z,8.32
2018-01-08T02:44:38.650Z,9.63
2018-01-08T02:47:04.863Z,9.18
2018-01-08T02:49:31.816Z,10.23
2018-01-08T02:51:58.082Z,9.15
2018-01-08T02:54:24.311Z,15.18
2018-01-08T02:56:50.543Z,11.15
2018-01-08T02:59:16.829Z,9.18
2018-01-08T03:01:43.054Z,11.12
2018-01-08T03:04:09.289Z,12.90
2018-01-08T03:06:35.522Z,11.60
2018-01-08T03:09:01.766Z,11.93
2018-01-08T03:11:27.988Z,11.52
2018-01-08T03:13:54.197Z,12.60
2018-01-08T03:16:20.435Z,12.88
2018-01-08T03:18:46.672Z,10.98
2018-01-08T03:21:12.890Z,12.63
2018-01-08T03:23:39.101Z,13.10
2018-01-08T03:26:06.049Z,10.27
2018-01-08T03:28:33.049Z,18.37
2018-01-08T03:30:59.285Z,11.23
2018-01-08T03:33:25.485Z,12.65
2018-01-08T03:35:52.901Z,11.48
2018-01-08T03:38:19.659Z,13.70
2018-01-08T03:40:45.881Z,10.80
2018-01-08T03:43:12.124Z,12.52
2018-01-08T03:45:38.341Z,11.05
2018-01-08T03:48:04.582Z,12.88
2018-01-08T03:50:31.542Z,11.68
2018-01-08T03:52:57.770Z,13.80
2018-01-08T03:55:24.762Z,11.85
2018-01-08T03:57:50.989Z,13.40
2018-01-08T04:00:17.272Z,11.20
2018-01-08T04:02:43.541Z,14.38
2018-01-08T04:05:09.764Z,14.70
2018-01-08T04:07:36.026Z,12.27
2018-01-08T04:10:02.287Z,9.40
2018-01-08T04:12:28.515Z,11.85
2018-01-08T04:14:54.766Z,12.20
2018-01-08T04:17:22.885Z,10.52
2018-01-08T04:19:49.864Z,10.57
2018-01-08T04:22:16.077Z,12.18
2018-01-08T04:24:42.321Z,10.32
2018-01-08T04:27:08.572Z,12.70
2018-01-08T04:29:34.788Z,12.98
2018-01-08T04:32:01.006Z,11.30
2018-01-08T04:34:27.949Z,10.10
2018-01-08T04:36:54.191Z,10.63
2018-01-08T04:39:21.133Z,14.68
2018-01-08T04:41:47.361Z,11.75
2018-01-08T04:44:13.584Z,12.20
2018-01-08T04:46:39.817Z,11.75
2018-01-08T04:49:06.058Z,13.55
2018-01-08T04:51:32.278Z,9.88
2018-01-08T04:53:58.553Z,11.45
2018-01-08T04:56:24.781Z,14.68
2018-01-08T04:58:50.997Z,11.10
2018-01-08T05:01:17.218Z,11.48
2018-01-08T05:03:43.484Z,11.52
2018-01-08T05:06:09.720Z,12.70
2018-01-08T05:08:35.989Z,14.45
2018-01-08T05:11:02.213Z,11.75
2018-01-08T05:13:28.453Z,12.07
2018-01-08T05:15:54.706Z,13.05
2018-01-08T05:18:20.958Z,11.35
2018-01-08T05:20:48.009Z,12.35
2018-01-08T05:23:14.211Z,12.15
2018-01-08T05:25:40.445Z,12.32
2018-01-08T05:28:07.419Z,13.93
2018-01-08T05:30:33.689Z,13.85
2018-01-08T05:32:59.943Z,11.05
2018-01-08T05:35:26.186Z,12.20
2018-01-08T05:37:52.413Z,14.55
2018-01-08T05:40:18.621Z,14.15
2018-01-08T05:42:44.858Z,12.30
2018-01-08T05:45:11.157Z,12.45
2018-01-08T05:47:37.405Z,12.95
2018-01-08T05:50:03.649Z,10.40
2018-01-08T05:52:29.853Z,11.18
2018-01-08T05:54:56.114Z,12.65
2018-01-08T05:57:22.378Z,14.95
2018-01-08T05:59:48.591Z,11.75
2018-01-08T06:02:14.836Z,12.63
2018-01-08T06:04:41.091Z,10.10
2018-01-08T06:07:07.324Z,13.10
2018-01-08T06:09:34.330Z,12.82
2018-01-08T06:12:00.558Z,10.10
2018-01-08T06:14:27.534Z,14.75
2018-01-08T06:16:53.757Z,13.07
2018-01-08T06:19:20.018Z,13.38
2018-01-08T06:21:46.536Z,13.50
2018-01-08T06:24:12.815Z,12.32
2018-01-08T06:26:39.638Z,12.45
2018-01-08T06:29:05.837Z,13.98
2018-01-08T06:31:32.854Z,13.65
2018-01-08T06:33:59.110Z,13.18
2018-01-08T06:36:25.369Z,13.32
2018-01-08T06:38:51.603Z,15.85
2018-01-08T06:41:17.836Z,13.52
2018-01-08T06:43:44.863Z,12.70
2018-01-08T06:46:11.821Z,13.60
2018-01-08T06:48:38.063Z,11.57
2018-01-08T06:51:05.208Z,13.98
2018-01-08T06:53:31.428Z,13.55
2018-01-08T06:55:57.644Z,13.57
2018-01-08T06:58:23.683Z,14.95
2018-01-08T07:00:50.085Z,15.68
2018-01-08T07:03:16.942Z,13.93
2018-01-08T07:05:43.688Z,14.60
2018-01-08T07:08:10.436Z,14.90
2018-01-08T07:10:37.650Z,14.55
2018-01-08T07:13:03.666Z,14.00
2018-01-08T07:15:29.880Z,14.32
2018-01-08T07:17:56.836Z,14.70
2018-01-08T07:20:23.822Z,13.75
2018-01-08T07:22:50.056Z,14.50
2018-01-08T07:25:16.278Z,16.87
2018-01-08T07:27:42.532Z,15.43
2018-01-08T07:30:09.485Z,16.10
2018-01-08T07:32:35.700Z,14.68
2018-01-08T07:35:01.925Z,16.58
2018-01-08T07:37:28.137Z,15.00
2018-01-08T07:39:54.158Z,13.90
2018-01-08T07:42:20.158Z,14.63
2018-01-08T07:44:46.176Z,14.05
2018-01-08T07:47:13.117Z,16.48
2018-01-08T07:49:39.333Z,14.05
2018-01-08T07:52:05.535Z,13.75
2018-01-08T07:54:32.499Z,18.02
2018-01-08T07:56:59.477Z,16.60
2018-01-08T07:59:26.485Z,14.05
2018-01-08T08:01:52.714Z,14.52
2018-01-08T08:04:18.921Z,14.90
2018-01-08T08:06:45.186Z,17.02
2018-01-08T08:09:11.427Z,14.13
2018-01-08T08:11:37.650Z,15.57
2018-01-08T08:14:03.868Z,12.25
2018-01-08T08:16:30.250Z,15.13
2018-01-08T08:18:57.180Z,15.00
2018-01-08T08:21:24.446Z,11.98
2018-01-08T08:23:50.646Z,17.05
2018-01-08T08:26:16.856Z,13.48
2018-01-08T08:28:43.057Z,16.17
2018-01-08T08:31:09.285Z,11.20
2018-01-08T08:33:36.101Z,15.35
2018-01-08T08:36:03.097Z,12.40
2018-01-08T08:38:29.303Z,14.00
2018-01-08T08:40:55.513Z,14.85
2018-01-08T08:43:21.709Z,18.30
2018-01-08T08:45:47.906Z,11.48
2018-01-08T08:48:14.095Z,14.25
2018-01-08T08:50:40.866Z,14.75
2018-01-08T08:53:06.925Z,14.93
2018-01-08T08:55:33.143Z,12.57
2018-01-08T08:58:00.113Z,17.02
2018-01-08T09:00:26.406Z,13.52
2018-01-08T09:02:52.673Z,14.50
2018-01-08T09:05:18.900Z,12.52
2018-01-08T09:07:44.945Z,13.77
2018-01-08T09:10:10.980Z,15.38
2018-01-08T09:12:37.407Z,12.37
2018-01-08T09:15:07.320Z,13.93
2018-01-08T09:17:33.526Z,12.25
2018-01-08T09:20:00.059Z,14.73
2018-01-08T09:22:26.224Z,15.18
2018-01-08T09:24:52.426Z,15.05
2018-01-08T09:27:18.637Z,13.25
2018-01-08T09:29:44.853Z,12.77
2018-01-08T09:32:11.037Z,12.63
2018-01-08T09:34:40.617Z,18.20
2018-01-08T09:37:06.851Z,14.02
2018-01-08T09:39:33.797Z,12.52
2018-01-08T09:42:00.024Z,12.23
2018-01-08T09:44:26.222Z,14.30
2018-01-08T09:46:52.479Z,14.82
2018-01-08T09:49:18.724Z,13.15
2018-01-08T09:51:45.149Z,16.17
2018-01-08T09:54:11.393Z,12.27
2018-01-08T09:56:37.633Z,13.77
2018-01-08T09:59:03.846Z,12.95
2018-01-08T10:01:30.701Z,11.90
2018-01-08T10:04:10.119Z,12.85
2018-01-08T10:06:48.532Z,15.05
2018-01-08T10:09:27.105Z,15.68
2018-01-08T10:12:09.345Z,12.13
2018-01-08T10:14:47.982Z,17.30
2018-01-08T10:17:27.220Z,14.95
2018-01-08T10:19:58.958Z,12.05
2018-01-08T10:22:24.988Z,13.93
2018-01-08T10:24:51.938Z,14.40
2018-01-08T10:27:18.934Z,16.77
2018-01-08T10:29:45.174Z,11.43
2018-01-08T10:32:13.282Z,14.05
2018-01-08T10:34:39.519Z,15.00
2018-01-08T10:37:05.758Z,13.98
2018-01-08T10:39:32.702Z,13.55
2018-01-08T10:42:04.979Z,12.10
2018-01-08T10:44:41.185Z,11.77
2018-01-08T10:47:13.893Z,14.15
2018-01-08T10:49:46.792Z,12.20
2018-01-08T10:52:17.115Z,12.68
2018-01-08T10:54:43.152Z,11.60
2018-01-08T10:57:09.177Z,11.55
2018-01-08T10:59:35.217Z,15.30
2018-01-08T11:02:07.474Z,11.52
2018-01-08T11:04:36.976Z,10.90
2018-01-08T11:07:04.634Z,12.68
2018-01-08T11:09:31.605Z,13.50
2018-01-08T11:11:57.825Z,13.40
2018-01-08T11:14:24.030Z,14.00
2018-01-08T11:16:50.260Z,12.07
2018-01-08T11:19:16.480Z,13.73
2018-01-08T11:21:42.698Z,14.30
2018-01-08T11:24:08.886Z,14.23
2018-01-08T11:26:36.816Z,11.68
2018-01-08T11:29:03.005Z,13.50
2018-01-08T11:31:29.211Z,17.40
2018-01-08T11:33:55.463Z,15.93
2018-01-08T11:36:21.710Z,18.80
2018-01-08T11:38:47.981Z,15.02
2018-01-08T11:41:14.238Z,19.95
2018-01-08T11:43:40.256Z,16.17
2018-01-08T11:46:06.458Z,15.15
2018-01-08T11:48:34.705Z,16.02
2018-01-08T11:51:00.913Z,17.80
2018-01-08T11:53:27.144Z,16.90
2018-01-08T11:55:54.225Z,16.40
2018-01-08T11:58:21.239Z,17.33
2018-01-08T12:00:47.447Z,17.85
2018-01-08T12:03:13.706Z,15.38
2018-01-08T12:05:41.890Z,17.08
2018-01-08T12:08:07.911Z,16.50
2018-01-08T12:10:33.938Z,17.37
2018-01-08T12:12:59.952Z,14.40
2018-01-08T12:15:26.297Z,18.48
2018-01-08T12:17:52.520Z,14.73
2018-01-08T12:20:18.845Z,14.73
2018-01-08T12:22:45.105Z,13.43
2018-01-08T12:25:14.753Z,14.50
2018-01-08T12:27:41.000Z,14.07
2018-01-08T12:30:07.266Z,13.23
2018-01-08T12:32:34.239Z,18.25
2018-01-08T12:35:00.441Z,13.27
2018-01-08T12:37:26.740Z,16.02
2018-01-08T12:39:53.783Z,16.40
2018-01-08T12:42:24.236Z,15.68
2018-01-08T12:44:50.278Z,16.65
2018-01-08T12:47:16.332Z,14.02
2018-01-08T12:49:42.585Z,18.58
2018-01-08T12:52:08.832Z,15.25
2018-01-08T12:54:35.102Z,13.90
2018-01-08T12:57:02.064Z,16.60
2018-01-08T12:59:30.145Z,14.40
2018-01-08T13:01:57.111Z,18.15
2018-01-08T13:04:23.340Z,19.27
2018-01-08T13:06:49.664Z,15.18
2018-01-08T13:09:15.763Z,16.42
2018-01-08T13:11:41.840Z,21.40
2018-01-08T13:14:08.118Z,14.48
2018-01-08T13:16:35.090Z,16.10
2018-01-08T13:19:05.430Z,16.33
2018-01-08T13:21:31.648Z,17.55
2018-01-08T13:23:57.852Z,16.33
2018-01-08T13:26:24.072Z,16.35
2018-01-08T13:28:50.489Z,18.33
2018-01-08T13:31:16.740Z,18.37
2018-01-08T13:33:43.051Z,16.65
2018-01-08T13:36:11.426Z,21.20
2018-01-08T13:38:37.699Z,21.37
2018-01-08T13:41:03.951Z,18.33
2018-01-08T13:43:30.186Z,20.60
2018-01-08T13:45:56.421Z,20.52
2018-01-08T13:48:22.640Z,17.73
2018-01-08T13:50:48.874Z,17.87
2018-01-08T13:53:15.181Z,18.37
2018-01-08T13:55:42.174Z,17.77
2018-01-08T13:58:12.949Z,18.42
2018-01-08T14:00:39.148Z,17.58
2018-01-08T14:03:05.487Z,19.70
2018-01-08T14:05:31.476Z,17.87
2018-01-08T14:07:57.493Z,18.77
2018-01-08T14:10:23.493Z,18.00
2018-01-08T14:12:50.250Z,16.25
2018-01-08T14:15:19.297Z,18.45
2018-01-08T14:17:45.367Z,17.70
2018-01-08T14:20:11.397Z,17.12
2018-01-08T14:22:37.892Z,16.75
2018-01-08T14:25:04.126Z,14.45
2018-01-08T14:27:30.353Z,23.02
2018-01-08T14:29:56.579Z,14.87
2018-01-08T14:32:25.317Z,15.88
2018-01-08T14:34:51.577Z,17.95
2018-01-08T14:37:17.797Z,19.55
2018-01-08T14:39:44.060Z,21.12
2018-01-08T14:42:10.295Z,21.25
2018-01-08T14:44:36.579Z,20.00
2018-01-08T14:47:02.778Z,21.65
2018-01-08T14:49:31.549Z,18.33
2018-01-08T14:51:57.799Z,22.35
2018-01-08T14:54:24.029Z,18.12
2018-01-08T14:56:50.053Z,16.98
2018-01-08T14:59:16.120Z,17.80
2018-01-08T15:01:42.173Z,19.33
2018-01-08T15:04:08.290Z,15.82
2018-01-08T15:06:36.957Z,17.95
2018-01-08T15:09:03.960Z,17.58
2018-01-08T15:11:30.427Z,17.35
2018-01-08T15:13:58.421Z,17.30
2018-01-08T15:16:24.635Z,18.70
2018-01-08T15:18:50.855Z,17.23
2018-01-08T15:21:19.090Z,15.95
2018-01-08T15:23:46.428Z,18.02
2018-01-08T15:26:12.705Z,15.63
2018-01-08T15:28:38.926Z,15.95
2018-01-08T15:31:05.145Z,13.75
2018-01-08T15:33:31.356Z,15.75
2018-01-08T15:35:57.598Z,15.68
2018-01-08T15:38:28.374Z,17.70
2018-01-08T15:40:54.710Z,19.92
2018-01-08T15:43:21.682Z,17.95
2018-01-08T15:45:48.654Z,20.42
2018-01-08T15:48:15.662Z,17.70
2018-01-08T15:50:41.686Z,20.08
2018-01-08T15:53:07.701Z,18.05
2018-01-08T15:55:33.996Z,16.35
2018-01-08T15:58:00.229Z,17.12
2018-01-08T16:00:26.448Z,17.98
2018-01-08T16:02:52.659Z,19.83
2018-01-08T16:05:20.477Z,17.12
2018-01-08T16:07:46.830Z,20.00
2018-01-08T16:10:13.079Z,21.83
2018-01-08T16:12:39.306Z,17.17
2018-01-08T16:15:05.808Z,17.40
2018-01-08T16:17:32.847Z,18.75
2018-01-08T16:19:59.060Z,15.85
2018-01-08T16:22:25.276Z,20.50
2018-01-08T16:24:51.558Z,19.65
2018-01-08T16:27:17.778Z,20.10
2018-01-08T16:29:43.995Z,19.12
2018-01-08T16:32:10.268Z,19.73
2018-01-08T16:34:38.054Z,17.73
2018-01-08T16:37:04.273Z,19.20
2018-01-08T16:39:30.513Z,18.90
2018-01-08T16:41:56.788Z,27.25
2018-01-08T16:44:23.210Z,18.67
2018-01-08T16:46:49.588Z,20.85
2018-01-08T16:49:16.541Z,20.88
2018-01-08T16:51:42.757Z,19.80
2018-01-08T16:54:09.013Z,20.92
2018-01-08T16:56:35.351Z,18.70
2018-01-08T16:59:01.566Z,19.85
2018-01-08T17:01:28.671Z,20.95
2018-01-08T17:03:55.008Z,23.52
2018-01-08T17:06:21.448Z,20.77
2018-01-08T17:08:47.661Z,22.48
2018-01-08T17:11:13.939Z,25.88
2018-01-08T17:13:40.141Z,24.98
2018-01-08T17:16:06.362Z,21.27
2018-01-08T17:18:32.585Z,22.55
2018-01-08T17:20:59.622Z,25.15
2018-01-08T17:23:25.860Z,22.25
2018-01-08T17:25:52.086Z,22.45
2018-01-08T17:28:18.324Z,22.33
2018-01-08T17:30:44.612Z,19.73
2018-01-08T17:33:10.861Z,23.80
2018-01-08T17:35:37.178Z,22.15
2018-01-08T17:38:04.433Z,27.13
2018-01-08T17:40:30.610Z,22.42
2018-01-08T17:42:56.639Z,23.33
2018-01-08T17:45:22.931Z,28.83
2018-01-08T17:47:49.272Z,22.67
2018-01-08T17:50:15.639Z,18.30
2018-01-08T17:52:41.863Z,26.58
2018-01-08T17:55:08.113Z,29.37
2018-01-08T17:57:34.412Z,25.67
2018-01-08T18:00:00.689Z,27.75
2018-01-08T18:02:26.925Z,29.23
2018-01-08T18:04:53.234Z,33.28
2018-01-08T18:07:19.529Z,29.52
2018-01-08T18:09:45.746Z,30.30
2018-01-08T18:12:11.962Z,35.53
2018-01-08T18:14:38.200Z,40.10
2018-01-08T18:17:04.588Z,36.53
2018-01-08T18:19:30.804Z,31.10
2018-01-08T18:21:57.029Z,29.33
2018-01-08T18:24:23.233Z,29.12
2018-01-08T18:26:49.433Z,27.48
2018-01-08T18:29:16.403Z,27.77
2018-01-08T18:31:42.650Z,27.85
2018-01-08T18:34:08.824Z,28.92
2018-01-08T18:36:35.080Z,28.02
2018-01-08T18:39:01.334Z,24.15
2018-01-08T18:41:27.572Z,34.53
2018-01-08T18:43:53.801Z,29.92
2018-01-08T18:46:20.055Z,30.85
2018-01-08T18:48:46.088Z,28.73
2018-01-08T18:51:12.466Z,27.13
2018-01-08T18:53:39.549Z,31.12
2018-01-08T18:56:06.555Z,29.80
2018-01-08T18:58:32.826Z,33.88
2018-01-08T19:00:59.968Z,28.85
2018-01-08T19:03:26.229Z,29.48
2018-01-08T19:05:52.699Z,30.48
2018-01-08T19:08:18.886Z,34.10
2018-01-08T19:10:45.701Z,32.05
2018-01-08T19:13:12.722Z,30.10
2018-01-08T19:15:39.732Z,31.17
2018-01-08T19:18:05.961Z,29.52
2018-01-08T19:20:32.291Z,27.58
2018-01-08T19:22:59.314Z,28.80
2018-01-08T19:25:25.497Z,33.35
2018-01-08T19:27:52.552Z,29.90
2018-01-08T19:30:19.494Z,30.88
2018-01-08T19:32:45.709Z,36.08
2018-01-08T19:35:11.933Z,28.85
2018-01-08T19:37:38.172Z,33.42
2018-01-08T19:40:05.745Z,28.30
2018-01-08T19:42:31.966Z,28.90
2018-01-08T19:44:59.078Z,30.73
2018-01-08T19:47:25.326Z,31.50
2018-01-08T19:49:51.576Z,31.77
2018-01-08T19:52:18.553Z,30.55
2018-01-08T19:54:44.600Z,31.05
2018-01-08T19:57:10.821Z,33.20
2018-01-08T19:59:37.839Z,33.13
2018-01-08T20:02:04.122Z,32.45
2018-01-08T20:04:31.154Z,28.60
2018-01-08T20:06:57.437Z,27.92
2018-01-08T20:09:23.745Z,30.02
2018-01-08T20:11:49.986Z,31.52
2018-01-08T20:14:16.219Z,32.67
2018-01-08T20:16:42.453Z,31.10
2018-01-08T20:19:08.679Z,29.08
2018-01-08T20:21:34.924Z,33.72
2018-01-08T20:24:01.190Z,29.27
2018-01-08T20:26:27.421Z,32.50
2018-01-08T20:28:53.675Z,28.95
2018-01-08T20:31:20.687Z,31.60
2018-01-08T20:33:47.669Z,29.15
2018-01-08T20:36:13.929Z,31.70
2018-01-08T20:38:40.216Z,28.45
2018-01-08T20:41:06.457Z,29.92
2018-01-08T20:43:34.548Z,27.50
2018-01-08T20:46:00.831Z,25.30
2018-01-08T20:48:27.045Z,27.48
2018-01-08T20:50:53.622Z,27.33
2018-01-08T20:53:19.874Z,27.50
2018-01-08T20:55:46.838Z,28.48
2018-01-08T20:58:13.835Z,24.10
2018-01-08T21:00:41.461Z,28.92
2018-01-08T21:03:08.338Z,27.67
2018-01-08T21:05:35.383Z,26.85
2018-01-08T21:08:02.459Z,25.48
2018-01-08T21:10:29.470Z,21.37
2018-01-08T21:12:55.826Z,26.10
2018-01-08T21:15:22.186Z,23.98
2018-01-08T21:17:48.687Z,25.40
2018-01-08T21:20:14.975Z,26.77
2018-01-08T21:22:41.193Z,27.65
2018-01-08T21:25:08.277Z,27.25
2018-01-08T21:27:34.595Z,27.98
2018-01-08T21:30:00.831Z,33.15
2018-01-08T21:32:27.106Z,26.17
2018-01-08T21:34:54.154Z,27.17
2018-01-08T21:37:21.201Z,40.28
2018-01-08T21:39:47.449Z,23.52
2018-01-08T21:42:13.689Z,37.95
2018-01-08T21:44:40.057Z,27.10
2018-01-08T21:47:06.265Z,28.73
2018-01-08T21:49:32.473Z,29.87
2018-01-08T21:51:58.702Z,27.00
2018-01-08T21:54:25.123Z,26.95
2018-01-08T21:56:52.145Z,32.35
2018-01-08T21:59:18.552Z,29.95
2018-01-08T22:01:44.781Z,29.67
2018-01-08T22:04:11.840Z,27.80
2018-01-08T22:06:38.066Z,30.75
2018-01-08T22:09:04.866Z,27.87
2018-01-08T22:11:31.652Z,26.77
2018-01-08T22:13:58.044Z,28.45
2018-01-08T22:16:25.010Z,27.87
2018-01-08T22:18:51.951Z,27.20
2018-01-08T22:21:18.241Z,27.65
2018-01-08T22:23:44.511Z,29.60
2018-01-08T22:26:10.833Z,26.92
2018-01-08T22:28:36.906Z,30.45
2018-01-08T22:31:04.208Z,28.05
2018-01-08T22:33:30.394Z,24.87
2018-01-08T22:35:57.366Z,28.75
2018-01-08T22:38:23.670Z,28.10
2018-01-08T22:40:49.906Z,28.90
2018-01-08T22:43:16.152Z,26.70
2018-01-08T22:45:42.365Z,27.73
2018-01-08T22:48:08.622Z,26.98
2018-01-08T22:50:35.595Z,25.52
2018-01-08T22:53:01.864Z,27.85
2018-01-08T22:55:28.915Z,37.13
2018-01-08T22:57:55.120Z,28.98
2018-01-08T23:00:21.826Z,29.67
2018-01-08T23:02:48.765Z,32.15
2018-01-08T23:05:14.984Z,31.70
2018-01-08T23:07:41.497Z,30.05
2018-01-08T23:10:07.725Z,27.48
2018-01-08T23:12:33.948Z,27.83
2018-01-08T23:15:00.976Z,28.08
2018-01-08T23:17:27.209Z,28.83
2018-01-08T23:19:53.439Z,29.42
2018-01-08T23:22:19.684Z,35.15
2018-01-08T23:24:45.890Z,31.40
2018-01-08T23:27:12.176Z,29.67
2018-01-08T23:29:39.135Z,28.10
2018-01-08T23:32:06.128Z,29.80
2018-01-08T23:34:33.082Z,25.70
2018-01-08T23:36:59.689Z,28.90
2018-01-08T23:39:25.940Z,29.10
2018-01-08T23:41:52.181Z,28.60
2018-01-08T23:44:18.388Z,28.23
2018-01-08T23:46:44.679Z,28.90
2018-01-08T23:49:10.959Z,26.73
2018-01-08T23:51:37.889Z,28.58
2018-01-08T23:54:04.887Z,26.70
2018-01-08T23:56:31.113Z,29.52
2018-01-08T23:58:58.073Z,30.52
